»·PEaware :: N17MA KSNA-KSNA

N17MA :: KSNA-KSNA

FLIGHT INFORMATION

Flight Status: Arrived
Operator: Privately registered:
United States
More flights under this callsign
Pilot: Diego M. (28112)
Aircraft: CESSNA 172 SKYHAWK
(C172)
More flights by this aircraft type
Origin: KSNA John Wayne-Orange Co
United States
Destination: KSNA John Wayne-Orange Co
United States
More flights between these airports :: More routes between these airports
Route: KSNA SLI KSNA
File this flight plan on PilotEdge
Remarks: I1 RATING
Altitude:
(Current/Filed)
4,000ft
Speed:
(Current/Filed)
120kts
Departed: 06-May-20 01:46 PM
Arrived: 06-May-20 02:15 PM
Distance/Time
Traveled:
0nm/0:29
Distance/Time
To Go:
Arrived

Flight Plot

Page will automatically refresh every two minutes.


Map Options




Map Legend


Flown Route
Filed Route
Departure Airport
Arrival Airport
Navaid (VOR, NDB)
Fix

Horizontal Profiles

Position Reports

Time Latitude Longitude Heading Altitude Ground
Speed
06-May-20 13:07 33.670670 -117.868620 265 60ft 0kts
06-May-20 13:08 33.670670 -117.868620 265 60ft 0kts
06-May-20 13:09 33.670670 -117.868620 265 60ft 0kts
06-May-20 13:10 33.670670 -117.868620 265 60ft 0kts
06-May-20 13:11 33.670670 -117.868620 265 60ft 0kts
06-May-20 13:12 33.670670 -117.868620 265 60ft 0kts
06-May-20 13:13 33.670670 -117.868620 265 60ft 0kts
06-May-20 13:14 33.670670 -117.868620 265 60ft 0kts
06-May-20 13:15 33.670670 -117.868620 265 60ft 0kts
06-May-20 13:16 33.670670 -117.868620 265 60ft 0kts
06-May-20 13:17 33.670670 -117.868620 265 60ft 0kts
06-May-20 13:18 33.670670 -117.868620 265 60ft 0kts
06-May-20 13:19 33.670670 -117.868620 265 60ft 0kts
06-May-20 13:20 33.670670 -117.868620 265 60ft 0kts
06-May-20 13:21 33.670670 -117.868620 265 60ft 0kts
06-May-20 13:22 33.670670 -117.868620 265 60ft 0kts
06-May-20 13:23 33.670670 -117.868620 265 60ft 0kts
06-May-20 13:24 33.670670 -117.868620 265 60ft 0kts
06-May-20 13:25 33.670670 -117.868620 265 60ft 0kts
06-May-20 13:26 33.670670 -117.868620 265 60ft 0kts
06-May-20 13:27 33.670670 -117.868620 265 60ft 0kts
06-May-20 13:28 33.670670 -117.868620 265 60ft 0kts
06-May-20 13:29 33.670670 -117.868620 265 60ft 0kts
06-May-20 13:30 33.670670 -117.868620 265 60ft 0kts
06-May-20 13:31 33.670670 -117.868620 265 60ft 0kts
06-May-20 13:32 33.670670 -117.868620 265 60ft 0kts
06-May-20 13:33 33.670670 -117.868620 265 60ft 0kts
06-May-20 13:34 33.670670 -117.868620 265 60ft 0kts
06-May-20 13:35 33.670670 -117.868620 265 60ft 0kts
06-May-20 13:36 33.670670 -117.868620 265 60ft 0kts
06-May-20 13:37 33.670854 -117.869082 359 60ft 0kts
06-May-20 13:38 33.672981 -117.867340 46 60ft 15kts
06-May-20 13:39 33.675126 -117.866431 26 60ft 15kts
06-May-20 13:40 33.679651 -117.863560 30 60ft 14kts
06-May-20 13:41 33.679994 -117.863685 294 60ft 0kts
06-May-20 13:42 33.679994 -117.863685 294 60ft 0kts
06-May-20 13:43 33.679994 -117.863685 294 60ft 0kts
06-May-20 13:44 33.679994 -117.863685 294 60ft 0kts
06-May-20 13:45 33.677706 -117.865698 207 60ft 57kts
06-May-20 13:46 33.662636 -117.880586 240 557ft 84kts
06-May-20 13:47 33.651390 -117.906884 240 1212ft 89kts
06-May-20 13:48 33.640208 -117.933236 240 1912ft 87kts
06-May-20 13:49 33.626961 -117.964277 241 2010ft 117kts
06-May-20 13:50 33.612850 -117.997540 241 2419ft 100kts
06-May-20 13:51 33.610918 -118.027248 321 3001ft 114kts
06-May-20 13:52 33.642600 -118.013628 31 3009ft 128kts
06-May-20 13:54 33.672700 -117.990736 31 3009ft 126kts
06-May-20 13:55 33.702647 -117.967877 31 3009ft 126kts
06-May-20 13:56 33.732368 -117.945112 31 3009ft 126kts
06-May-20 13:57 33.762039 -117.922313 31 3009ft 126kts
06-May-20 13:58 33.791374 -117.899277 31 3007ft 124kts
06-May-20 13:59 33.819887 -117.876263 31 3006ft 122kts
06-May-20 14:00 33.847819 -117.853599 31 3004ft 119kts
06-May-20 14:01 33.875404 -117.831503 31 3002ft 117kts
06-May-20 14:02 33.902696 -117.809905 31 3001ft 116kts
06-May-20 14:03 33.929860 -117.788559 31 3002ft 115kts
06-May-20 14:04 33.955654 -117.765377 63 3005ft 119kts
06-May-20 14:05 33.948779 -117.728177 156 3007ft 122kts
06-May-20 14:06 33.915639 -117.730506 191 3004ft 121kts
06-May-20 14:07 33.882360 -117.737192 198 3003ft 120kts
06-May-20 14:08 33.853249 -117.755819 211 3005ft 117kts
06-May-20 14:09 33.823753 -117.774789 210 2891ft 119kts
06-May-20 14:10 33.795831 -117.792588 210 2450ft 105kts
06-May-20 14:11 33.772508 -117.807411 210 2056ft 90kts
06-May-20 14:12 33.748548 -117.822650 208 1572ft 102kts
06-May-20 14:12 33.727196 -117.836200 208 1101ft 105kts
06-May-20 14:13 33.701446 -117.852536 208 531ft 99kts
06-May-20 14:15 33.679339 -117.866532 208 60ft 40kts
06-May-20 14:15 33.677318 -117.866623 117 60ft 0kts
06-May-20 14:16 33.677318 -117.866623 117 60ft 0kts
06-May-20 14:18 33.677266 -117.866509 121 60ft 4kts
06-May-20 14:18 33.676371 -117.865640 209 60ft 7kts
06-May-20 14:19 33.673506 -117.866901 174 60ft 3kts
06-May-20 14:20 33.671262 -117.868751 213 60ft 12kts
06-May-20 14:21 33.670671 -117.868526 45 60ft 0kts
06-May-20 14:22 33.670671 -117.868526 45 60ft 0kts
06-May-20 14:23 33.670671 -117.868526 45 60ft 0kts
06-May-20 14:24 33.670671 -117.868526 45 60ft 0kts
06-May-20 14:25 33.670671 -117.868526 45 60ft 0kts
06-May-20 14:26 33.670671 -117.868526 45 60ft 0kts
06-May-20 14:27 33.670671 -117.868526 45 60ft 0kts
06-May-20 14:28 33.670671 -117.868527 45 60ft 0kts
06-May-20 14:29 33.670671 -117.868527 45 60ft 0kts

Navigation Log

Ident Type
Flight plan parsing failed, navigation log unavailable